Barrington, Illinois
Current Conditions -  °F | °C
As of 6:52 PM on Wednesday 26 Nov 2014 (Local Time) from KPWK Reporting Station
Haze Haze  
Wind Chill: 21°   Ceiling: 2700
Heat Index: 29°   Visibility: 6mi
Dew Point: 23°   Wind: 8mph
Humidity: 78%   Direction: 360°N
Pressure: 30.15"   Gusts: NA
Location:  42.15°N, 88.14°W
Report Text: KPWK 270052Z 36007KT 6SM HZ OVC027 M02/M05 A3015 RMK AO2 SLP218 T10171050
Loading
Personal Weather Stations






























Interactive Weather Map New forecast layout! Learn more

10-Day Weather Forecast

Advertisements
Track Severe Weather on mobile